CheckWX is a tool to help pilots better visualize weather data.  It is not intended as a substitute for an official pre-flight weather briefing.

09:54:19 UTC

KHEQ METAR
Holyoke Airport
Holyoke, Colorado, USA
Current

24 mins ago

KHEQ 250930Z AUTO 32019G25KT 10SM SCT026 M02/M05 A2997 RMK AO2
Observed
Feb-25 @ 09:30 UTC
Wind
  • 320° at 19 KTS
  • Gusting to 25 KTS
Visibility
10 SM
Flight Rules
VFR
Cloud Levels
  • Scattered at 2,600' AGL
Temperature
-2°C / 28°F
Dewpoint
-5°C / 23°F
Humidity
80%
Altimeter
29.97" Hg
Pressure
1014.92 hPa
Previous

44 mins ago

KHEQ 250910Z AUTO 32017G26KT 10SM SCT030 M02/M05 A2997 RMK AO2
Observed
Feb-25 @ 09:10 UTC
Wind
  • 320° at 17 KTS
  • Gusting to 26 KTS
Visibility
10 SM
Flight Rules
VFR
Cloud Levels
  • Scattered at 3,000' AGL
Temperature
-2°C / 28°F
Dewpoint
-5°C / 23°F
Humidity
80%
Altimeter
29.97" Hg
Pressure
1014.92 hPa
Previous

1 hour ago

KHEQ 250850Z AUTO 32017G27KT 10SM SCT030 M02/M05 A2997 RMK AO2
Observed
Feb-25 @ 08:50 UTC
Wind
  • 320° at 17 KTS
  • Gusting to 27 KTS
Visibility
10 SM
Flight Rules
VFR
Cloud Levels
  • Scattered at 3,000' AGL
Temperature
-2°C / 28°F
Dewpoint
-5°C / 23°F
Humidity
80%
Altimeter
29.97" Hg
Pressure
1014.92 hPa